Time;durP1;ratioP1;P1;durP2;ratioP2;P2;SDS_P1;SDS_P2;PMS_P1;PMS_P2;Temp;Humidity;BMP_temperature;BMP_pressure;BME280_temperature;BME280_humidity;BME280_pressure;Samples;Min_cycle;Max_cycle;Signal;HPM_P1;HPM_P2
2022/09/14 00:01:14;;;;;;;;;;;;;;;17.41;71.75;100815.63;5045399;28;20001;-55
2022/09/14 00:03:39;;;;;;;;;;;;;;;17.39;72.01;100815.03;5040967;28;20461;-55
2022/09/14 00:06:05;;;;;;;;;;;;;;;17.38;72.04;100810.69;5044640;28;19948;-55
2022/09/14 00:08:31;;;;;;;;;;;;;;;17.37;72.65;100806.34;5043386;28;20078;-55
2022/09/14 00:10:56;;;;;;;;;;;;;;;17.38;72.65;100809.88;5061744;28;20020;-55
2022/09/14 00:13:21;;;;;;;;;;;;;;;17.38;72.25;100799.94;5042151;28;20627;-54
2022/09/14 00:15:47;;;;;;;;;;;;;;;17.38;72.15;100805.31;5043029;28;19924;-54
2022/09/14 00:18:12;;;;;;;;;;;;;;;17.37;72.39;100809.03;5046377;28;19924;-56
2022/09/14 00:20:38;;;;;;;;;;;;;;;17.37;72.26;100801.00;5043926;28;19924;-56
2022/09/14 00:23:03;;;;;;;;;;;;;;;17.34;72.34;100796.84;5043279;28;20291;-56
2022/09/14 00:25:29;;;;;;;;;;;;;;;17.33;72.47;100795.19;5042393;28;19928;-54
2022/09/14 00:27:54;;;;;;;;;;;;;;;17.32;72.34;100790.06;5043657;28;19925;-55
2022/09/14 00:30:20;;;;;;;;;;;;;;;17.31;72.50;100796.47;5043326;28;19925;-55
2022/09/14 00:32:45;;;;;;;;;;;;;;;17.30;72.72;100792.13;5041445;28;19924;-55
2022/09/14 00:35:10;;;;;;;;;;;;;;;17.29;72.84;100785.94;5041272;28;19921;-55
2022/09/14 00:37:36;;;;;;;;;;;;;;;17.27;72.57;100788.03;5042605;28;19931;-55
2022/09/14 00:40:02;;;;;;;;;;;;;;;17.26;72.59;100782.88;5040623;28;20586;-56
2022/09/14 00:42:27;;;;;;;;;;;;;;;17.25;72.81;100782.06;5043549;28;19924;-55
2022/09/14 00:44:56;;;;;;;;;;;;;;;17.23;73.01;100780.63;5043915;28;19984;-54
2022/09/14 00:47:22;;;;;;;;;;;;;;;17.21;72.82;100772.78;5040623;28;19979;-55
2022/09/14 00:49:47;;;;;;;;;;;;;;;17.20;72.85;100773.00;5043884;28;19925;-55
2022/09/14 00:52:18;;;;;;;;;;;;;;;17.19;73.07;100772.19;5042269;28;19938;-56
2022/09/14 00:54:48;;;;;;;;;;;;;;;17.19;72.80;100761.44;5040299;28;20453;-55
2022/09/14 00:57:14;;;;;;;;;;;;;;;17.19;73.08;100755.25;5042801;28;20418;-56
2022/09/14 00:59:40;;;;;;;;;;;;;;;17.18;73.03;100753.63;5042967;28;19956;-54
2022/09/14 01:02:07;;;;;;;;;;;;;;;17.18;73.35;100750.94;5041489;28;20593;-55
2022/09/14 01:04:33;;;;;;;;;;;;;;;17.17;73.11;100757.34;5041729;28;19987;-55
2022/09/14 01:07:17;;;;;;;;;;;;;;;17.16;73.51;100744.97;5043675;28;20375;-55
2022/09/14 01:09:51;;;;;;;;;;;;;;;17.15;73.68;100746.81;5041302;28;20387;-55
2022/09/14 01:12:22;;;;;;;;;;;;;;;17.13;73.64;100740.84;5041357;28;19925;-55
2022/09/14 01:14:50;;;;;;;;;;;;;;;17.13;73.30;100740.84;5040462;28;21512;-55
2022/09/14 01:17:21;;;;;;;;;;;;;;;17.12;73.59;100738.38;5044290;28;20395;-55
2022/09/14 01:20:06;;;;;;;;;;;;;;;17.10;73.59;100733.22;5042364;28;19917;-55
2022/09/14 01:22:48;;;;;;;;;;;;;;;17.09;73.58;100722.72;5042245;28;19920;-54
2022/09/14 01:25:32;;;;;;;;;;;;;;;17.08;73.54;100726.44;5042635;28;19959;-53
2022/09/14 01:28:00;;;;;;;;;;;;;;;17.05;73.69;100727.66;5046081;28;19979;-55
2022/09/14 01:30:27;;;;;;;;;;;;;;;17.03;74.02;100725.19;5045765;28;20388;-55
2022/09/14 01:33:13;;;;;;;;;;;;;;;17.00;73.96;100727.50;5046449;28;19917;-55
2022/09/14 01:35:42;;;;;;;;;;;;;;;16.97;73.87;100717.19;5045017;28;19982;-55
2022/09/14 01:38:27;;;;;;;;;;;;;;;16.94;74.30;100715.78;5042869;28;19925;-55
2022/09/14 01:40:54;;;;;;;;;;;;;;;16.90;74.28;100703.81;5034856;28;20383;-54
2022/09/14 01:43:28;;;;;;;;;;;;;;;16.86;74.17;100707.97;5042528;28;19968;-53
2022/09/14 01:45:57;;;;;;;;;;;;;;;16.83;74.47;100713.78;5046914;28;19924;-54
2022/09/14 01:48:26;;;;;;;;;;;;;;;16.81;74.49;100721.22;5045513;28;19968;-54
2022/09/14 01:50:54;;;;;;;;;;;;;;;16.79;74.71;100717.09;5045064;28;19926;-54
2022/09/14 01:53:24;;;;;;;;;;;;;;;16.76;74.73;100725.56;5044347;28;19921;-53
2022/09/14 01:55:58;;;;;;;;;;;;;;;16.74;74.53;100717.72;5044840;28;19928;-55
2022/09/14 01:58:28;;;;;;;;;;;;;;;16.68;74.82;100707.88;5046788;28;19917;-53
2022/09/14 02:00:55;;;;;;;;;;;;;;;16.65;74.99;100710.94;5047507;28;19944;-54
2022/09/14 02:03:37;;;;;;;;;;;;;;;16.63;74.95;100702.28;5044272;28;19925;-52
2022/09/14 02:06:06;;;;;;;;;;;;;;;16.61;74.98;100699.81;5047331;28;19921;-53
2022/09/14 02:08:32;;;;;;;;;;;;;;;16.60;75.22;100694.69;5044589;28;19921;-54
2022/09/14 02:10:57;;;;;;;;;;;;;;;16.58;75.06;100689.53;5048356;28;20327;-54
2022/09/14 02:13:23;;;;;;;;;;;;;;;16.58;74.76;100696.75;5043791;28;20399;-54
2022/09/14 02:15:48;;;;;;;;;;;;;;;16.57;74.73;100703.16;5049069;28;20905;-54
2022/09/14 02:18:13;;;;;;;;;;;;;;;16.57;74.86;100713.88;5043248;28;19921;-54
2022/09/14 02:20:39;;;;;;;;;;;;;;;16.56;75.15;100715.72;5044897;28;19920;-54
2022/09/14 02:23:04;;;;;;;;;;;;;;;16.56;74.93;100712.22;5045607;28;19916;-54
2022/09/14 02:25:30;;;;;;;;;;;;;;;16.54;75.26;100714.31;5039414;28;19916;-54
2022/09/14 02:27:55;;;;;;;;;;;;;;;16.53;74.85;100707.28;5042344;28;20405;-53
2022/09/14 02:30:21;;;;;;;;;;;;;;;16.53;75.41;100708.13;5043856;28;19978;-50
2022/09/14 02:32:54;;;;;;;;;;;;;;;16.52;75.22;100711.00;5044701;28;19925;-54
2022/09/14 02:35:22;;;;;;;;;;;;;;;16.49;75.54;100709.59;5044393;28;20031;-52
2022/09/14 02:38:03;;;;;;;;;;;;;;;16.46;75.79;100712.66;5044327;28;19920;-53
2022/09/14 02:40:36;;;;;;;;;;;;;;;16.41;75.64;100712.47;5046103;28;19916;-54
2022/09/14 02:43:04;;;;;;;;;;;;;;;16.37;75.82;100709.41;5041766;28;19928;-54
2022/09/14 02:45:30;;;;;;;;;;;;;;;16.31;76.16;100688.81;5045378;28;19927;-51
2022/09/14 02:48:14;;;;;;;;;;;;;;;16.36;76.36;100704.25;5044721;28;19917;-53
2022/09/14 02:50:43;;;;;;;;;;;;;;;16.35;76.29;100700.75;5043638;28;19932;-53
2022/09/14 02:53:12;;;;;;;;;;;;;;;16.33;76.67;100702.81;5042559;28;19974;-54
2022/09/14 02:55:41;;;;;;;;;;;;;;;16.29;76.84;100698.09;5043588;28;19917;-54
2022/09/14 02:58:08;;;;;;;;;;;;;;;16.24;77.02;100701.41;5046028;28;19921;-54
2022/09/14 03:00:35;;;;;;;;;;;;;;;16.22;76.71;100697.31;5042796;28;19975;-54
2022/09/14 03:03:01;;;;;;;;;;;;;;;16.19;77.21;100693.19;5043060;28;19924;-55
2022/09/14 03:05:26;;;;;;;;;;;;;;;16.18;77.31;100696.88;5043640;28;19917;-55
2022/09/14 03:07:51;;;;;;;;;;;;;;;16.15;77.24;100683.09;5044715;28;19920;-56
2022/09/14 03:10:16;;;;;;;;;;;;;;;16.11;76.90;100688.03;5043019;28;19917;-54
2022/09/14 03:12:41;;;;;;;;;;;;;;;16.07;77.00;100690.31;5044522;28;20444;-54
2022/09/14 03:15:07;;;;;;;;;;;;;;;16.03;77.35;100690.97;5044290;28;19970;-54
2022/09/14 03:17:32;;;;;;;;;;;;;;;15.98;77.68;100688.09;5041862;28;19929;-54
2022/09/14 03:19:57;;;;;;;;;;;;;;;15.94;77.53;100684.19;5045310;28;19936;-55
2022/09/14 03:22:22;;;;;;;;;;;;;;;15.92;77.90;100681.72;5044120;28;19932;-54
2022/09/14 03:24:48;;;;;;;;;;;;;;;15.88;77.72;100667.06;5044904;28;21777;-51
2022/09/14 03:27:13;;;;;;;;;;;;;;;15.84;77.57;100665.03;5041949;28;19917;-54
2022/09/14 03:29:38;;;;;;;;;;;;;;;15.79;78.01;100673.69;5046473;28;20506;-53
2022/09/14 03:32:03;;;;;;;;;;;;;;;15.75;78.19;100667.13;5045818;28;19924;-53
2022/09/14 03:34:29;;;;;;;;;;;;;;;15.69;78.32;100670.63;5043136;28;19978;-55
2022/09/14 03:36:54;;;;;;;;;;;;;;;15.65;78.36;100672.09;5042672;28;20015;-53
2022/09/14 03:39:19;;;;;;;;;;;;;;;15.58;78.08;100666.72;5043739;28;19947;-54
2022/09/14 03:41:44;;;;;;;;;;;;;;;15.53;78.49;100666.47;5042348;28;20307;-53
2022/09/14 03:44:09;;;;;;;;;;;;;;;15.46;78.32;100665.69;5043850;28;19963;-53
2022/09/14 03:46:34;;;;;;;;;;;;;;;15.42;78.73;100656.41;5043121;28;19916;-55
2022/09/14 03:49:00;;;;;;;;;;;;;;;15.36;78.99;100651.91;5045576;28;20299;-53
2022/09/14 03:51:25;;;;;;;;;;;;;;;15.30;79.00;100645.50;5042420;28;19921;-54
2022/09/14 03:53:50;;;;;;;;;;;;;;;15.27;78.49;100645.09;5042607;28;20451;-54
2022/09/14 03:56:16;;;;;;;;;;;;;;;15.24;78.58;100645.50;5042944;28;20021;-54
2022/09/14 03:58:42;;;;;;;;;;;;;;;15.21;78.63;100648.59;5044009;28;19924;-53
2022/09/14 04:01:10;;;;;;;;;;;;;;;15.17;79.15;100649.00;5045030;28;19969;-54
2022/09/14 04:03:35;;;;;;;;;;;;;;;15.15;79.19;100645.72;5042562;28;20449;-54
2022/09/14 04:06:04;;;;;;;;;;;;;;;15.14;79.47;100632.53;5043059;28;19973;-54
2022/09/14 04:08:29;;;;;;;;;;;;;;;15.15;80.25;100637.69;5041087;28;19987;-55
2022/09/14 04:10:54;;;;;;;;;;;;;;;15.12;80.37;100632.75;5043733;28;20334;-54
2022/09/14 04:13:19;;;;;;;;;;;;;;;15.10;80.10;100632.13;5044659;28;19932;-55
2022/09/14 04:15:54;;;;;;;;;;;;;;;15.08;80.22;100636.88;5048057;28;20191;-54
2022/09/14 04:18:19;;;;;;;;;;;;;;;15.06;80.11;100630.91;5048932;28;20011;-55
2022/09/14 04:20:52;;;;;;;;;;;;;;;15.05;79.98;100629.25;5040270;28;20194;-55
2022/09/14 04:23:17;;;;;;;;;;;;;;;15.05;80.26;100631.09;5040510;28;20396;-54
2022/09/14 04:25:42;;;;;;;;;;;;;;;15.03;80.48;100623.25;5044010;28;20460;-52
2022/09/14 04:28:07;;;;;;;;;;;;;;;15.03;80.46;100619.75;5052251;28;19912;-55
2022/09/14 04:30:33;;;;;;;;;;;;;;;15.00;80.69;100621.00;5047241;28;19913;-54
2022/09/14 04:32:58;;;;;;;;;;;;;;;15.01;80.91;100619.16;5045381;28;19924;-55
2022/09/14 04:35:23;;;;;;;;;;;;;;;15.01;80.88;100611.13;5048310;28;19913;-55
2022/09/14 04:37:48;;;;;;;;;;;;;;;15.01;80.80;100609.28;5044113;28;20026;-55
2022/09/14 04:40:14;;;;;;;;;;;;;;;15.02;80.49;100615.44;5038212;28;19916;-55
2022/09/14 04:42:39;;;;;;;;;;;;;;;15.02;80.68;100615.44;5044863;28;19920;-54
2022/09/14 04:45:04;;;;;;;;;;;;;;;15.02;81.17;100613.59;5047600;28;19916;-55
2022/09/14 04:47:29;;;;;;;;;;;;;;;15.02;80.71;100602.06;5045765;28;20433;-54
2022/09/14 04:49:54;;;;;;;;;;;;;;;15.02;80.84;100602.06;5045944;28;19959;-55
2022/09/14 04:52:20;;;;;;;;;;;;;;;15.00;80.84;100593.44;5041775;28;19951;-53
2022/09/14 04:54:46;;;;;;;;;;;;;;;15.00;81.29;100598.78;5042665;28;19913;-54
2022/09/14 04:57:11;;;;;;;;;;;;;;;14.99;81.40;100592.63;5043588;28;19920;-55
2022/09/14 04:59:36;;;;;;;;;;;;;;;15.00;81.29;100593.44;5044930;28;19952;-55
2022/09/14 05:02:01;;;;;;;;;;;;;;;15.00;81.28;100580.06;5037963;28;20327;-53
2022/09/14 05:04:26;;;;;;;;;;;;;;;15.00;81.24;100580.88;5042938;28;19972;-54
2022/09/14 05:06:51;;;;;;;;;;;;;;;15.00;81.58;100582.75;5042114;28;19917;-53
2022/09/14 05:09:17;;;;;;;;;;;;;;;15.00;81.18;100585.41;5042802;28;19917;-55
2022/09/14 05:11:43;;;;;;;;;;;;;;;15.03;81.04;100598.38;5043174;28;20012;-53
2022/09/14 05:14:09;;;;;;;;;;;;;;;15.02;81.49;100592.19;5043964;28;19916;-54
2022/09/14 05:16:37;;;;;;;;;;;;;;;15.03;81.09;100593.84;5039979;28;19920;-54
2022/09/14 05:19:07;;;;;;;;;;;;;;;15.04;81.65;100594.69;5042957;28;19917;-54
2022/09/14 05:21:34;;;;;;;;;;;;;;;15.08;81.50;100595.94;5040904;28;19925;-54
2022/09/14 05:24:00;;;;;;;;;;;;;;;15.11;81.63;100599.00;5042635;28;19917;-54
2022/09/14 05:26:27;;;;;;;;;;;;;;;15.13;81.81;100604.16;5043455;28;19921;-53
2022/09/14 05:28:53;;;;;;;;;;;;;;;15.16;81.48;100606.41;5044312;28;19962;-52
2022/09/14 05:31:19;;;;;;;;;;;;;;;15.18;81.53;100605.19;5041773;28;19921;-54
2022/09/14 05:33:44;;;;;;;;;;;;;;;15.22;81.48;100613.59;5043578;28;19927;-52
2022/09/14 05:36:10;;;;;;;;;;;;;;;15.25;81.39;100617.72;5044468;28;20450;-54
2022/09/14 05:38:36;;;;;;;;;;;;;;;15.26;81.38;100617.50;5042883;28;19999;-54
2022/09/14 05:41:02;;;;;;;;;;;;;;;15.30;81.38;100616.06;5043465;28;19939;-55
2022/09/14 05:43:28;;;;;;;;;;;;;;;15.31;81.27;100612.34;5043929;28;20288;-51
2022/09/14 05:45:53;;;;;;;;;;;;;;;15.31;81.54;100617.72;5041559;28;19962;-52
2022/09/14 05:48:18;;;;;;;;;;;;;;;15.32;81.09;100613.19;5039630;28;19924;-50
2022/09/14 05:50:43;;;;;;;;;;;;;;;15.31;81.21;100611.53;5046195;28;19921;-54
2022/09/14 05:53:09;;;;;;;;;;;;;;;15.29;81.63;100609.06;5043642;28;19931;-52
2022/09/14 05:55:34;;;;;;;;;;;;;;;15.29;81.45;100619.78;5043761;28;19963;-52
2022/09/14 05:57:59;;;;;;;;;;;;;;;15.30;81.45;100623.25;5051798;28;20391;-50
2022/09/14 06:00:24;;;;;;;;;;;;;;;15.31;81.10;100614.22;5041532;28;19925;-53
2022/09/14 06:02:51;;;;;;;;;;;;;;;15.30;81.36;100620.59;5041701;28;20437;-55
2022/09/14 06:05:16;;;;;;;;;;;;;;;15.30;81.52;100618.75;5041256;28;19921;-55
2022/09/14 06:07:41;;;;;;;;;;;;;;;15.32;81.51;100622.03;5040994;28;20218;-55
2022/09/14 06:10:07;;;;;;;;;;;;;;;15.35;81.67;100621.66;5038793;28;20351;-54
2022/09/14 06:12:32;;;;;;;;;;;;;;;15.38;81.23;100626.56;5043316;28;19921;-55
2022/09/14 06:14:57;;;;;;;;;;;;;;;15.41;81.34;100625.34;5044785;28;19924;-54
2022/09/14 06:17:22;;;;;;;;;;;;;;;15.44;81.36;100630.28;5045389;28;19928;-55
2022/09/14 06:19:48;;;;;;;;;;;;;;;15.46;81.32;100634.38;5047280;28;19917;-55
2022/09/14 06:22:13;;;;;;;;;;;;;;;15.49;81.67;100630.47;5044699;28;20331;-54
2022/09/14 06:24:38;;;;;;;;;;;;;;;15.50;81.49;100630.25;5044969;28;20011;-55
2022/09/14 06:27:03;;;;;;;;;;;;;;;15.49;81.71;100627.78;5046301;28;19920;-54
2022/09/14 06:29:29;;;;;;;;;;;;;;;15.48;81.83;100626.16;5047620;28;20258;-55
2022/09/14 06:31:54;;;;;;;;;;;;;;;15.49;81.50;100625.13;5046566;28;19916;-54
2022/09/14 06:34:19;;;;;;;;;;;;;;;15.48;81.96;100618.94;5049645;28;20080;-52
2022/09/14 06:36:44;;;;;;;;;;;;;;;15.49;81.83;100612.56;5052409;28;19921;-54
2022/09/14 06:39:09;;;;;;;;;;;;;;;15.50;81.84;100616.88;5049278;28;20016;-54
2022/09/14 06:41:34;;;;;;;;;;;;;;;15.50;81.87;100610.69;5047961;28;19963;-54
2022/09/14 06:44:03;;;;;;;;;;;;;;;15.48;82.00;100610.91;5051175;28;19921;-53
2022/09/14 06:46:30;;;;;;;;;;;;;;;15.47;81.76;100608.44;5049326;28;20283;-54
2022/09/14 06:49:00;;;;;;;;;;;;;;;15.45;82.05;100602.47;5048980;28;19917;-53
2022/09/14 06:51:27;;;;;;;;;;;;;;;15.43;81.67;100610.72;5051897;28;19917;-51
2022/09/14 06:53:54;;;;;;;;;;;;;;;15.42;82.15;100609.06;5054748;28;20031;-53
2022/09/14 06:56:19;;;;;;;;;;;;;;;15.40;82.30;100599.59;5042068;28;20380;-54
2022/09/14 06:58:45;;;;;;;;;;;;;;;15.41;82.20;100595.91;5043609;28;19912;-53
2022/09/14 07:01:11;;;;;;;;;;;;;;;15.42;82.36;100598.38;5047826;28;20360;-54
2022/09/14 07:03:37;;;;;;;;;;;;;;;15.44;82.67;100600.84;5052978;28;19924;-51
2022/09/14 07:06:05;;;;;;;;;;;;;;;15.41;82.67;100590.53;5044175;28;19917;-50
2022/09/14 07:08:30;;;;;;;;;;;;;;;15.41;82.87;100587.88;5043427;28;19950;-51
2022/09/14 07:10:57;;;;;;;;;;;;;;;15.39;83.12;100593.44;5045525;28;20316;-54
2022/09/14 07:13:23;;;;;;;;;;;;;;;15.38;82.87;100591.78;5039890;28;19932;-53
2022/09/14 07:15:49;;;;;;;;;;;;;;;15.40;83.23;100600.44;5043269;28;19920;-54
2022/09/14 07:18:14;;;;;;;;;;;;;;;15.40;83.33;100591.59;5042878;28;20709;-54
2022/09/14 07:20:39;;;;;;;;;;;;;;;15.39;83.33;100593.44;5045668;28;20478;-55
2022/09/14 07:23:04;;;;;;;;;;;;;;;15.40;83.43;100596.94;5046395;28;19916;-55
2022/09/14 07:25:30;;;;;;;;;;;;;;;15.39;83.38;100587.25;5046400;28;19916;-54
2022/09/14 07:27:55;;;;;;;;;;;;;;;15.39;83.57;100588.09;5050404;28;20391;-55
2022/09/14 07:30:23;;;;;;;;;;;;;;;15.38;83.99;100590.97;5050288;28;19917;-55
2022/09/14 07:32:48;;;;;;;;;;;;;;;15.37;83.61;100583.97;5045804;28;20005;-54
2022/09/14 07:35:13;;;;;;;;;;;;;;;15.33;83.96;100591.59;5044055;28;19991;-53
2022/09/14 07:37:39;;;;;;;;;;;;;;;15.33;83.90;100582.75;5050987;28;19921;-55
2022/09/14 07:40:04;;;;;;;;;;;;;;;15.31;84.09;100582.94;5047723;28;19920;-54
2022/09/14 07:42:30;;;;;;;;;;;;;;;15.26;84.05;100582.72;5044348;28;20675;-55
2022/09/14 07:44:56;;;;;;;;;;;;;;;15.26;83.99;100592.59;5041669;28;20276;-54
2022/09/14 07:47:21;;;;;;;;;;;;;;;15.27;84.00;100588.91;5046397;28;19947;-54
2022/09/14 07:49:46;;;;;;;;;;;;;;;15.28;84.18;100579.84;5048840;28;19928;-54
2022/09/14 07:52:11;;;;;;;;;;;;;;;15.31;84.38;100576.75;5046426;28;20356;-55
2022/09/14 07:54:36;;;;;;;;;;;;;;;15.31;84.15;100574.91;5050323;28;19943;-55
2022/09/14 07:57:01;;;;;;;;;;;;;;;15.31;84.32;100574.06;5043250;28;20015;-54
2022/09/14 07:59:27;;;;;;;;;;;;;;;15.28;84.54;100569.97;5046772;28;19922;-54
2022/09/14 08:01:52;;;;;;;;;;;;;;;15.27;84.48;100565.66;5042618;28;19917;-54
2022/09/14 08:04:17;;;;;;;;;;;;;;;15.28;84.29;100569.97;5042730;28;19996;-54
2022/09/14 08:06:42;;;;;;;;;;;;;;;15.30;84.45;100580.47;5049131;28;20379;-53
2022/09/14 08:09:07;;;;;;;;;;;;;;;15.34;84.80;100584.38;5042931;28;19920;-54
2022/09/14 08:11:35;;;;;;;;;;;;;;;15.36;84.97;100576.97;5044900;28;19956;-54
2022/09/14 08:14:02;;;;;;;;;;;;;;;15.37;84.85;100590.16;5036411;28;20280;-54
2022/09/14 08:16:28;;;;;;;;;;;;;;;15.42;84.80;100586.84;5049403;28;19927;-55
2022/09/14 08:18:54;;;;;;;;;;;;;;;15.46;84.58;100588.88;5045139;28;19916;-53
2022/09/14 08:21:20;;;;;;;;;;;;;;;15.49;84.55;100583.13;5033888;28;19913;-53
2022/09/14 08:23:45;;;;;;;;;;;;;;;15.52;84.97;100568.50;5049050;28;19966;-54
2022/09/14 08:26:12;;;;;;;;;;;;;;;15.56;84.82;100577.75;5049257;28;19912;-54
2022/09/14 08:28:37;;;;;;;;;;;;;;;15.58;84.41;100572.19;5049164;28;19921;-55
2022/09/14 08:31:10;;;;;;;;;;;;;;;15.59;84.73;100580.03;5043103;28;20431;-52
2022/09/14 08:33:36;;;;;;;;;;;;;;;15.61;84.63;100580.66;5045363;28;19917;-54
2022/09/14 08:36:02;;;;;;;;;;;;;;;15.61;84.89;100582.50;5048579;28;19913;-51
2022/09/14 08:38:27;;;;;;;;;;;;;;;15.61;85.00;100580.66;5047131;28;19917;-51
2022/09/14 08:40:53;;;;;;;;;;;;;;;15.64;85.09;100580.25;5044103;28;20007;-54
2022/09/14 08:43:20;;;;;;;;;;;;;;;15.65;85.23;100581.88;5044586;28;19917;-51
2022/09/14 08:45:47;;;;;;;;;;;;;;;15.67;85.02;100587.03;5049895;28;20302;-53
2022/09/14 08:48:24;;;;;;;;;;;;;;;15.68;85.00;100580.66;5046079;28;19917;-54
2022/09/14 08:50:52;;;;;;;;;;;;;;;15.69;84.70;100582.28;5048577;28;20003;-52
2022/09/14 08:53:17;;;;;;;;;;;;;;;15.68;84.91;100586.81;5043359;28;19917;-54
2022/09/14 08:55:59;;;;;;;;;;;;;;;15.70;85.08;100575.91;5042311;28;19917;-54
2022/09/14 08:58:32;;;;;;;;;;;;;;;15.70;85.07;100579.41;5043231;28;19917;-54
2022/09/14 09:01:20;;;;;;;;;;;;;;;15.71;85.35;100581.03;5045095;28;19955;-53
2022/09/14 09:03:54;;;;;;;;;;;;;;;15.71;85.31;100578.38;5024532;28;19947;-54
2022/09/14 09:06:27;;;;;;;;;;;;;;;15.69;85.38;100580.44;5047461;28;20542;-55
2022/09/14 09:09:00;;;;;;;;;;;;;;;15.68;85.28;100589.50;5046716;28;19962;-55
2022/09/14 09:11:27;;;;;;;;;;;;;;;15.68;85.36;100592.16;5049163;28;19919;-55
2022/09/14 09:13:54;;;;;;;;;;;;;;;15.67;85.25;100590.53;5046597;28;20372;-54
2022/09/14 09:16:21;;;;;;;;;;;;;;;15.67;85.06;100584.34;5038973;28;19924;-54
2022/09/14 09:19:07;;;;;;;;;;;;;;;15.67;84.93;100584.34;5045520;28;20131;-56
2022/09/14 09:21:37;;;;;;;;;;;;;;;15.67;85.27;100595.88;5044587;28;20212;-55
2022/09/14 09:24:21;;;;;;;;;;;;;;;15.67;85.06;100589.72;5048391;28;19913;-54
2022/09/14 09:26:46;;;;;;;;;;;;;;;15.62;84.49;100585.00;5042713;28;19948;-54
2022/09/14 09:29:11;;;;;;;;;;;;;;;15.59;84.20;100580.03;5042844;28;19971;-54
2022/09/14 09:31:38;;;;;;;;;;;;;;;15.56;84.52;100583.09;5040419;28;19921;-55
2022/09/14 09:34:04;;;;;;;;;;;;;;;15.56;84.75;100588.44;5047232;28;19958;-55
2022/09/14 09:36:33;;;;;;;;;;;;;;;15.55;84.89;100585.97;5048412;28;19917;-53
2022/09/14 09:38:58;;;;;;;;;;;;;;;15.53;84.92;100585.38;5049320;28;19912;-54
2022/09/14 09:41:26;;;;;;;;;;;;;;;15.52;84.67;100587.22;5043618;28;19974;-54
2022/09/14 09:44:02;;;;;;;;;;;;;;;15.52;84.68;100581.06;5043095;28;19919;-54
2022/09/14 09:46:29;;;;;;;;;;;;;;;15.53;84.99;100577.34;5040648;28;19932;-54
2022/09/14 09:48:55;;;;;;;;;;;;;;;15.56;85.12;100579.59;5050636;28;20376;-54
2022/09/14 09:51:23;;;;;;;;;;;;;;;15.55;85.07;100576.09;5050573;28;19921;-55
2022/09/14 09:53:51;;;;;;;;;;;;;;;15.56;84.99;100571.56;5051498;28;19921;-53
2022/09/14 09:56:19;;;;;;;;;;;;;;;15.57;85.22;100573.22;5043567;28;19952;-53
2022/09/14 09:58:45;;;;;;;;;;;;;;;15.57;85.20;100576.72;5047890;28;19995;-53
2022/09/14 10:01:19;;;;;;;;;;;;;;;15.57;84.89;100565.19;5048892;28;20016;-54
2022/09/14 10:03:58;;;;;;;;;;;;;;;15.58;84.58;100553.44;5044948;28;20399;-54
2022/09/14 10:06:23;;;;;;;;;;;;;;;15.58;84.17;100554.28;5044341;28;20409;-54
2022/09/14 10:08:48;;;;;;;;;;;;;;;15.57;84.29;100554.47;5046186;28;20019;-54
2022/09/14 10:11:27;;;;;;;;;;;;;;;15.56;84.30;100555.50;5051164;28;20486;-55
2022/09/14 10:13:52;;;;;;;;;;;;;;;15.57;84.19;100557.16;5050554;28;19912;-52
2022/09/14 10:16:18;;;;;;;;;;;;;;;15.61;84.18;100563.75;5043425;28;20012;-55
2022/09/14 10:18:45;;;;;;;;;;;;;;;15.63;84.29;100561.72;5044463;28;20563;-52
2022/09/14 10:21:11;;;;;;;;;;;;;;;15.62;83.86;100566.25;5044093;28;20529;-52
2022/09/14 10:23:38;;;;;;;;;;;;;;;15.61;83.96;100569.97;5051939;28;19913;-54
2022/09/14 10:26:09;;;;;;;;;;;;;;;15.59;83.79;100557.78;5051136;28;19921;-54
2022/09/14 10:28:34;;;;;;;;;;;;;;;15.61;84.13;100569.09;5049770;28;20380;-53
2022/09/14 10:31:15;;;;;;;;;;;;;;;15.65;83.93;100568.50;5048167;28;19939;-54
2022/09/14 10:33:41;;;;;;;;;;;;;;;15.64;83.79;100561.50;5046886;28;19921;-54
2022/09/14 10:36:16;;;;;;;;;;;;;;;15.64;84.03;100571.38;5044172;28;19940;-54
2022/09/14 10:38:44;;;;;;;;;;;;;;;15.64;83.61;100566.03;5048634;28;19920;-52
2022/09/14 10:41:18;;;;;;;;;;;;;;;15.64;83.90;100563.38;5042123;28;20391;-53
2022/09/14 10:43:52;;;;;;;;;;;;;;;15.66;83.67;100572.00;5046913;28;19916;-53
2022/09/14 10:46:20;;;;;;;;;;;;;;;15.70;83.60;100571.38;5046759;28;20004;-55
2022/09/14 10:48:52;;;;;;;;;;;;;;;15.76;83.65;100567.00;5043673;28;19924;-55
2022/09/14 10:51:32;;;;;;;;;;;;;;;15.78;83.55;100565.78;5044157;28;19917;-54
2022/09/14 10:54:04;;;;;;;;;;;;;;;15.81;84.01;100564.53;5041492;28;19916;-53
2022/09/14 10:56:39;;;;;;;;;;;;;;;15.82;83.74;100560.81;5045824;28;19917;-53
2022/09/14 10:59:16;;;;;;;;;;;;;;;15.81;83.45;100569.88;5042969;28;20295;-52
2022/09/14 11:02:03;;;;;;;;;;;;;;;15.80;83.56;100563.69;5045340;28;19920;-56
2022/09/14 11:04:47;;;;;;;;;;;;;;;15.79;83.64;100567.41;5050101;28;19923;-54
2022/09/14 11:07:18;;;;;;;;;;;;;;;15.76;83.29;100565.16;5045872;28;19917;-54
2022/09/14 11:09:52;;;;;;;;;;;;;;;15.73;83.39;100560.22;5042991;28;20559;-54
2022/09/14 11:12:28;;;;;;;;;;;;;;;15.69;83.15;100563.53;5043873;28;19917;-55
2022/09/14 11:15:05;;;;;;;;;;;;;;;15.68;83.25;100560.06;5042668;28;19921;-54
2022/09/14 11:17:47;;;;;;;;;;;;;;;15.67;83.09;100558.41;5045603;28;19928;-55
2022/09/14 11:20:24;;;;;;;;;;;;;;;15.67;83.19;100557.59;5037264;28;19975;-54
2022/09/14 11:22:50;;;;;;;;;;;;;;;15.65;83.14;100560.47;5041420;28;19962;-54
2022/09/14 11:25:17;;;;;;;;;;;;;;;15.66;83.01;100570.16;5043512;28;19921;-54
2022/09/14 11:27:49;;;;;;;;;;;;;;;15.69;83.26;100563.53;5041750;28;19923;-52
2022/09/14 11:30:22;;;;;;;;;;;;;;;15.71;83.07;100564.97;5040705;28;19929;-54
2022/09/14 11:32:57;;;;;;;;;;;;;;;15.73;82.92;100573.63;5043576;28;19916;-53
2022/09/14 11:35:27;;;;;;;;;;;;;;;15.74;82.74;100566.41;5042232;28;19936;-54
2022/09/14 11:37:59;;;;;;;;;;;;;;;15.77;83.25;100564.13;5042017;28;19979;-52
2022/09/14 11:40:34;;;;;;;;;;;;;;;15.80;83.04;100562.88;5044958;28;20412;-55
2022/09/14 11:42:59;;;;;;;;;;;;;;;15.79;83.06;100558.56;5041496;28;21397;-53
2022/09/14 11:45:33;;;;;;;;;;;;;;;15.77;83.12;100553.41;5041898;28;19924;-55
2022/09/14 11:48:06;;;;;;;;;;;;;;;15.80;83.03;100555.66;5042857;28;19921;-54
2022/09/14 11:50:33;;;;;;;;;;;;;;;15.83;83.15;100550.91;5043855;28;19965;-54
2022/09/14 11:53:03;;;;;;;;;;;;;;;15.83;83.05;100551.75;5044786;28;19921;-54
2022/09/14 11:55:28;;;;;;;;;;;;;;;15.86;83.39;100558.53;5043982;28;19970;-54
2022/09/14 11:57:53;;;;;;;;;;;;;;;15.85;83.35;100563.06;5044262;28;20401;-54
2022/09/14 12:00:18;;;;;;;;;;;;;;;15.86;83.63;100564.72;5042473;28;20522;-55
2022/09/14 12:02:56;;;;;;;;;;;;;;;15.88;83.35;100561.81;5043643;28;19932;-54
2022/09/14 12:05:21;;;;;;;;;;;;;;;15.89;83.45;100556.25;5042550;28;19924;-54
2022/09/14 12:07:46;;;;;;;;;;;;;;;15.89;83.31;100553.56;5041446;28;19924;-54
2022/09/14 12:10:15;;;;;;;;;;;;;;;15.89;83.15;100556.25;5041067;28;19924;-54
2022/09/14 12:12:43;;;;;;;;;;;;;;;15.89;83.79;100542.84;5043503;28;19917;-52
2022/09/14 12:15:14;;;;;;;;;;;;;;;15.91;83.87;100538.13;5043752;28;20307;-52
2022/09/14 12:17:40;;;;;;;;;;;;;;;15.94;83.76;100542.25;5041341;28;19983;-53
2022/09/14 12:20:28;;;;;;;;;;;;;;;15.95;83.96;100547.38;5042175;28;20016;-55
2022/09/14 12:23:03;;;;;;;;;;;;;;;15.95;83.69;100544.72;5043567;28;19923;-55
2022/09/14 12:25:30;;;;;;;;;;;;;;;15.97;83.64;100548.00;5045242;28;19940;-52
2022/09/14 12:27:55;;;;;;;;;;;;;;;15.99;83.82;100545.09;5047102;28;19992;-54
2022/09/14 12:30:46;;;;;;;;;;;;;;;16.00;83.60;100536.84;5041363;28;19925;-54
2022/09/14 12:33:32;;;;;;;;;;;;;;;16.03;84.12;100538.28;5034115;28;19921;-54
2022/09/14 12:35:57;;;;;;;;;;;;;;;16.05;83.92;100539.69;5038961;28;20507;-55
2022/09/14 12:38:28;;;;;;;;;;;;;;;16.02;83.73;100537.47;5044310;28;19932;-55
2022/09/14 12:40:54;;;;;;;;;;;;;;;16.02;83.83;100536.63;5040715;28;19975;-54